Terminal Aerodrome Forecast
Issued by NWS

Home | Current Version | Previous Version | Text Only | Print | Product List | Glossary On
Versions: 1 2 3 4 5 6 7 8 9 10 11 12 13 14 15 16 17 18 19 20 21 22
000
FTUS43 KLSX 011400 AAA
TAFUIN
TAF AMD
KUIN 011413Z 0114/0212 27010KT P6SM SCT040 BKN200
     FM020000 29005KT P6SM VCTS BKN050CB
     FM020300 34005KT P6SM BKN120=

USA.gov is the U.S. government's official web portal to all federal, state and local government web resources and services.